This site, now in its 15th season, is a labour of love and fun from one of Ottawa's most avid time trialists and number crunchers. It adheres to and is permitted by the laws of Canada, promotes the objectives of every bicycle club whose results are shown, and is donated free of charge by myself for your enjoyment and usage. If you would like results from series you ride in to be shown here, give me (celia@drmath.ca) a shout!


Index Page
ATT OTT WTT AATT CFCTT VVVTT
Help resultformat:
Case-sensitive

OBC Open TT Series - 2009-Aug-27 - 15km (Rockliffe Pkwy) (EvtFactor = 0.9495)

Weather (18:00): Mostly Cloudy. Temp.: 18C, Humidity: 45%, Dew Point: 6C, Wind: NNW 9km/h, Pressure: 102.2kPa, Visibility: 24km.
Weather (19:00): Cloudy. Temp.: 16C, Humidity: 50%, Dew Point: 6C, Wind: NNE 8km/h, Pressure: 102.2kPa, Visibility: 24km.
Weather (20:00): Partly Cloudy. Temp.: 15C, Humidity: 53%, Dew Point: 6C, Wind: ENE 8km/h, Pressure: 102.2kPa, Visibility: 24km.

Send photos with description (when/where/what) of yourself on or off of bike to celia@drmath.ca

These results were first posted on the OBC site circa 22:00 on 2009-Aug-27 and are available here for your added pleasure and analysis.
We are hoping that the OBC Board consults a lawyer and quickly recants and apologizes for their latest transgression against me before they get into legal trouble!


Back to our 15km course after a month and a half of 10km time trials, with high air pressure and cooler temperatures than we were used to, 8 people did well to improve upon their previous 2009 best OTT speed. Note that the huge improvement by Andrew Davy was due to the fact that he had not been out since Good Friday. In all, 17 people bettered or tied their previous database best 15k time. As well, there were some great 15km category performances tonight with an all-time Peewee Male 15km best of 25:45 by Derek Gee (only exceeded by Simon Cousineau's 25:23 back in the old category days of 1996-Jul-25) and an all-time Junior Male 15km best of 19:26 by Matteo Dal-Cin.

 
 

BESTS?
 
1 Fillion, Aaron  OBC 18:46 47.957 1/72 VAM 1/10 1.0106
2 MacDonald, Warren  OBC/EMD 18:50 47.788 2/72 VAM 2/10 0.9326
Y 3 Dal-Cin, Matteo  EUR 19:26 46.312 3/72 JUM 1/1 1.0155
4 van den Ham, Douglas  OBC/EMD 19:31 46.114 4/72 VAM 3/10 0.9974
5 Amos, Ron  OBC/RWR 19:59 45.038 5/72 VBM 1/17 0.9484
6 Gee, Jon OBC 20:12 44.554 6/72 VBM 2/17 1.0099
7 Datars, Paul  OBC/RWR 20:17 44.371 7/72 VCM 1/15 0.9092
8 Hamilton, Peter OBC 20:19 44.299 8/72 VBM 3/17 0.9756
9 Sudac, Rick  OBC/RWR 20:22 44.190 9/72 VDM 1/5 0.9589
10 Schlatter, Sue  CYC 20:25 44.082 10/72 VBF 1/7 0.9709
11 Martel, Brad RWR 20:36 43.689 11/72 VBM 4/17 0.8902
12 Desbiens, Martin OBC/RDO 20:44 43.408 12/72 VBM 5/17 1.0072
13 Lefebvre, Jean-Pierre OBC 20:48 43.269 13/72 VAM 4/10 1.0538
14 Munden, David --- 20:59 42.891 14/72 VAM 5/10 0.9393
15 Campbell, Colin  OBC 21:00 42.857 15/72 VBM 6/17 0.9929
16 Christie, Greg  OBC/RWR 21:07 42.620 16/72 VCM 2/15 1.0506
17 Katz, Joel  OBC 21:15 42.353 17/72 VCM 3/15 0.9583
18 Diaz, Rodrigo  OBC/EUR 21:19 42.220 18/72 VAM 6/10 0.9953
19 Farish, Neil  OBC/RWR 21:23 42.089 19/72 VCM 4/15 1.0427
20 Armstrong, Brian OBC 21:29 41.893 20/72 VBM 7/17 1.0305
21 Gerrard, David  OBC 21:33 41.763 21/72 VBM 8/17 0.9566
22 Budgell, Glen  OBC 21:35 41.699 22/72 VCM 5/15 0.9387
23 McKay, Allison  OBC/RDO 21:37 41.635 23/72 VBF 2/7 1.0024
24 Matte, Sophie  CYC 21:53 41.127 24/72 VAF 1/4 0.9954
25 Chedore, Paul ULT 22:02 40.847 25/72 VAM 7/10 0.9752
26 DeVidi, Robert  OBC 22:06 40.724 26/72 VBM 9/17 1.0836
27 Michel, Alexandre  WQW 22:10 40.602 27/72 VAM 8/10 1.0000
Moerman, Bram  OBC 22:10 40.602 27/72 VDM 2/5 0.9425
29 Posthuma, Hans  OBC 22:20 40.299 29/72 VCM 6/15 0.9712
30 Kerckhoff, Hermann  RWR 22:31 39.970 30/72 VEM 1/2 0.9802
31 Voyer, Christian OBC 22:38 39.764 31/72 VAM 9/10 1.2555
32 Revesz, Erika  OBC 22:39 39.735 32/72 VCF 1/2  
33 Boulanger, Gaetan  OBC 22:45 39.560 33/72 VDM 3/5 0.9978
34 Hall, Margot OBC 22:58 39.187 34/72 VAF 2/4 1.0065
35 Burdett, Avery  OBC 23:00 39.130 35/72 VEM 2/2 0.9134
36 Lampi, Allison OBC 23:04 39.017 36/72 VAF 3/4  
37 Hoover, Doug OBC 23:08 38.905 37/72 VCM 7/15  
38 Gagnon, Alexandre  OBC 23:12 38.793 38/72 SEM 1/4 1.1729
39 Brügger, Marcel RWR 23:13 38.765 39/72 VCM 8/15 0.9957
Davy, Andrew OBC 23:13 38.765 39/72 SEM 2/4 1.6984
41 Robitaille, Brian  OBC 23:16 38.682 41/72 VBM 10/17 0.9577
42 Grace, Darrin  --- 23:18 38.627 42/72 VBM 11/17 1.0369
43 Dorego, Jean-Louis OBC 23:26 38.407 43/72 VCM 9/15 0.9415
44 Blagdon, Wendy  CYC 23:28 38.352 44/72 VBF 3/7 0.9456
45 Marleau, Dianne  OBC/RWR 23:30 38.298 45/72 VBF 4/7 0.9915
46 Blais, Bob --- 23:31 38.271 46/72 VCM 10/15 1.0323
47 Muller-Cheng, Evan OBC 23:35 38.163 47/72 SEM 3/4 0.8704
48 Burge, Larry  OBC 23:42 37.975 48/72 VBM 12/17 0.9687
49 Lage, Rick OBC 23:43 37.948 49/72 VBM 13/17  
Wilkins, Carl  OBC 23:43 37.948 49/72 SEM 4/4 0.9584
51 Henry, Mike --- 23:54 37.657 51/72 VAM 10/10 0.9917
52 Deavy, Carol  OBC 23:58 37.552 52/72 VBF 5/7 0.9447
53 Imbrogno, Giorgio  OBC 24:13 37.164 53/72 VDM 4/5 1.0482
54 Acton, Mark RWR 24:14 37.139 54/72 VBM 14/17  
55 McKay, Andrea  RDO 24:18 37.037 55/72 VBF 6/7 1.0000
56 Budd, Daniel OBC 24:20 36.986 56/72 VBM 15/17  
57 Couturier-Lamy, Felix OBC 24:44 36.388 57/72 MIM 1/2 0.9920
Momtahan, Parham  OBC 24:44 36.388 57/72 VCM 11/15 0.9328
59 McInnis, Celia  OBC/ABC 24:45 36.364 59/72 VCF 2/2 0.9740
60 Janusauskas, Vytas  OBC 24:46 36.339 60/72 VCM 12/15 0.9291
61 Gagnon, Jules OBC 24:55 36.120 61/72 VCM 13/15 1.0634
62 Hauschildt, Gunter OBC 25:01 35.976 62/72 VBM 16/17 0.9240
63 Monast-Dore, Maxime OBC 25:20 35.526 63/72 MIM 2/2  
64 Balint, John OBC 25:28 35.340 64/72 VDM 5/5  
65 McLaughlin, Brian OBC 25:40 35.065 65/72 VCM 14/15 0.9502
66 Plouffe, Yves OBC 25:41 35.042 66/72 VBM 17/17 0.9260
Y 67 Gee, Derek  OBC 25:45 34.951 67/72 PWM 1/1 1.2047
68 McLaren, Louise  OBC 26:06 34.483 68/72 VBF 7/7 0.9734
69 Plouffe, Jean-Pierre --- 26:25 34.069 69/72 VCM 15/15  
70 Bonhomme, Ariane --- 26:35 33.856 70/72 MIF 1/1  
71 Ferlatte, Kari  FAE 26:38 33.792 71/72 VAF 4/4 0.9465
Y 72 Wright, Geoffrey  OBC 30:32 29.476 72/72 VFM 1/1 1.1930
 
Average Speed of all of the above 72 finishes (1080km in 27:31:48):39.230
>>>Average of the Average Speeds for these 72 finishes39.559<<<
 

The number of data records shown above is 72
The server processing of your query took: 0 wallclock secs ( 0.11 usr + 0.00 sys = 0.11 CPU)

Thanks to our Helpers: Jim Glover, Leona Gray, Gunter Hauschildt, Alex McKnight, Stephanie Rees, Erika Revesz, Erich Zappe.

     


Apr 10 (Good Friday)
May 5 (10km) May 7 May 12 (10km) May 14 May 19 May 19 (10km) May 21 May 26 May 26 (10km) May 28 May 31 (40km)
Jun 2 Jun 2 Jun 4 Jun 9 Jun 9 Jun 11 Jun 16 Jun 16 Jun 18 Jun 23 Jun 23 Jun 25 Jun 30 Jun 30
Jul 2 Jul 5 (40km) Jul 7 Jul 7 (10km) Jul 9 (10km) Jul 12 (40km) Jul 14 Jul 14 (10km) Jul 16 (10km) Jul 21 Jul 21 (10km) Jul 23 Jul 23 (10km) Jul 28 Jul 28 (10km) Jul 30 (10km)
Aug 4 (cancelled - thunder storm) Aug 4 (10km) (cancelled - thunder storm) Aug 6 (10km) Aug 9 (40km) Aug 11 Aug 11 (10km) Aug 13 (10km) Aug 18 Aug 18 (10km) Aug 20 (10km) (cancelled - construction) Aug 25 Aug 25 (Invitational)
  Aug 27  
Sep 1 Sep 3 Sep 8 Sep 10 Sep 13 (40km) Sep 15 Sep 22 Sep 29

OTT Rankings
Best       Best by category
WTT Rankings for OBC Members
4 Best Speeds     4 Best Speeds by category
OBC Member Best Three 15km Rankings
Overall     by category     age-Hcap Female   age-Hcap Male
OBC BAR Ranking
Overall     by category     Rider "Consistency-Graph"
ABC BAR Ranking
Overall     by category     Rider "Consistency-Graph"
Other years
TT Calculator All TT People All TT events
ABC Home VVV Home
CKAP GOLD MEDAL
Other Links

Note: OTT data from 2003 through 2006-Apr-14 and 2007-Apr-06-? and WTT from 2008-? is taken from the official OBC site.

Please send your comments and suggestions to: Celia McInnis
Copyright © 1998-2011 Celia McInnis. All rights reserved. Links are welcomed.